Time;durP1;ratioP1;P1;durP2;ratioP2;P2;SDS_P1;SDS_P2;PMS_P1;PMS_P2;Temp;Humidity;BMP_temperature;BMP_pressure;BME280_temperature;BME280_humidity;BME280_pressure;Samples;Min_cycle;Max_cycle;Signal;HPM_P1;HPM_P2
2022/07/29 00:05:13;;;;;;;3.30;1.45;;;;;;;18.08;55.70;101482.91;4677618;30;20130;-72
2022/07/29 00:08:21;;;;;;;6.22;1.83;;;;;;;18.05;55.51;101476.03;4665531;30;20050;-73
2022/07/29 00:10:50;;;;;;;3.55;1.60;;;;;;;18.01;55.26;101481.22;4680828;30;20501;-74
2022/07/29 00:13:15;;;;;;;4.78;1.35;;;;;;;18.03;55.89;101476.28;4682631;30;20034;-74
2022/07/29 00:15:41;;;;;;;6.07;1.67;;;;;;;18.03;55.65;101472.75;4682369;30;20093;-73
2022/07/29 00:18:06;;;;;;;4.22;1.70;;;;;;;18.04;55.88;101472.47;4682272;30;20034;-74
2022/07/29 00:20:31;;;;;;;3.47;1.23;;;;;;;18.00;55.96;101474.06;4680552;30;20045;-72
2022/07/29 00:23:42;;;;;;;5.78;1.70;;;;;;;18.01;55.90;101473.00;4682230;30;20038;-74
2022/07/29 00:26:10;;;;;;;7.05;1.88;;;;;;;17.92;56.63;101470.97;4681664;30;20045;-74
2022/07/29 00:28:36;;;;;;;4.15;1.80;;;;;;;17.89;56.60;101480.56;4680910;30;20038;-72
2022/07/29 00:31:01;;;;;;;5.43;1.90;;;;;;;17.86;56.75;101481.00;4681130;30;20046;-73
2022/07/29 00:33:26;;;;;;;9.05;1.58;;;;;;;17.85;57.10;101477.47;4682199;30;20025;-73
2022/07/29 00:35:52;;;;;;;3.85;1.40;;;;;;;17.78;57.02;101489.69;4681246;30;20038;-74
2022/07/29 00:41:39;;;;;;;3.95;1.50;;;;;;;17.84;57.87;101489.47;4675960;30;20200;-72
2022/07/29 00:44:04;;;;;;;3.08;1.40;;;;;;;17.84;57.22;101494.97;4682346;30;20472;-74
2022/07/29 00:46:29;;;;;;;5.35;1.58;;;;;;;17.89;57.37;101503.28;4682052;30;20041;-73
2022/07/29 00:48:54;;;;;;;8.57;1.88;;;;;;;17.89;58.09;101510.69;4679898;30;20496;-74
2022/07/29 00:55:37;;;;;;;4.05;1.70;;;;;;;17.96;57.65;101515.94;4669846;30;20114;-73
2022/07/29 00:58:05;;;;;;;3.70;1.65;;;;;;;17.92;57.80;101503.84;4666258;30;20034;-74
2022/07/29 01:00:31;;;;;;;5.20;1.63;;;;;;;17.93;59.15;101484.41;4681097;30;20037;-74
2022/07/29 01:02:56;;;;;;;4.60;1.38;;;;;;;17.94;58.80;101485.25;4699122;30;20178;-73
2022/07/29 01:05:23;;;;;;;5.90;1.75;;;;;;;17.99;60.00;101485.28;4702424;30;20049;-77
2022/07/29 01:07:52;;;;;;;5.55;1.88;;;;;;;17.98;60.74;101469.94;4692524;30;20472;-72
2022/07/29 01:10:39;;;;;;;7.18;1.85;;;;;;;17.93;59.98;101457.03;4680359;30;20384;-75
2022/07/29 01:13:05;;;;;;;6.43;1.58;;;;;;;17.91;60.27;101448.25;4684212;30;20112;-75
2022/07/29 01:15:32;;;;;;;4.10;1.70;;;;;;;17.92;59.98;101446.34;4684946;30;20471;-75
2022/07/29 01:18:15;;;;;;;5.13;1.80;;;;;;;17.89;60.05;101442.22;4684617;30;20057;-72
2022/07/29 01:21:25;;;;;;;5.88;2.00;;;;;;;17.84;60.35;101440.22;4684059;30;20033;-72
2022/07/29 01:24:05;;;;;;;4.70;1.58;;;;;;;17.79;59.85;101423.75;4681069;30;20554;-74
2022/07/29 01:26:37;;;;;;;7.68;1.90;;;;;;;17.70;60.25;101412.44;4684694;30;20040;-75
2022/07/29 01:29:11;;;;;;;8.85;2.00;;;;;;;17.62;60.37;101391.03;4684989;30;20038;-76
2022/07/29 01:31:48;;;;;;;3.72;2.00;;;;;;;17.60;60.85;101395.09;4683069;30;20030;-73
2022/07/29 01:34:21;;;;;;;9.63;2.50;;;;;;;17.59;60.90;101394.28;4684849;30;20026;-74
2022/07/29 01:36:51;;;;;;;5.20;2.30;;;;;;;17.47;61.18;101388.97;4668459;30;20048;-72
2022/07/29 01:39:25;;;;;;;5.55;2.20;;;;;;;17.43;61.21;101389.75;4684636;30;20476;-72
2022/07/29 01:42:14;;;;;;;4.43;2.03;;;;;;;17.34;61.75;101392.91;4683083;30;20045;-74
2022/07/29 01:44:53;;;;;;;5.65;2.25;;;;;;;17.31;62.01;101395.34;4684488;30;20034;-72
2022/07/29 01:47:23;;;;;;;4.07;1.80;;;;;;;17.18;62.73;101382.88;4683315;30;20158;-74
2022/07/29 01:49:52;;;;;;;5.82;1.80;;;;;;;17.18;63.07;101388.34;4683086;30;20038;-73
2022/07/29 01:52:33;;;;;;;3.75;1.90;;;;;;;17.13;62.81;101383.66;4682658;30;20291;-73
2022/07/29 01:55:49;;;;;;;6.63;2.03;;;;;;;17.23;61.65;101398.56;4683877;30;20038;-73
2022/07/29 01:58:17;;;;;;;7.25;2.00;;;;;;;17.15;63.07;101402.53;4678335;30;20044;-75
2022/07/29 02:00:47;;;;;;;3.88;2.05;;;;;;;17.15;62.93;101397.91;4681142;30;20034;-72
2022/07/29 02:03:18;;;;;;;4.20;1.90;;;;;;;17.12;63.52;101401.16;4698309;30;20057;-73
2022/07/29 02:05:47;;;;;;;7.72;2.10;;;;;;;17.12;63.47;101392.13;4685291;30;20092;-72
2022/07/29 02:08:15;;;;;;;4.45;1.60;;;;;;;17.17;63.48;101389.47;4683152;30;20057;-73
2022/07/29 02:10:43;;;;;;;6.30;2.00;;;;;;;17.13;64.14;101391.03;4681316;30;20519;-73
2022/07/29 02:13:11;;;;;;;5.85;1.83;;;;;;;17.15;63.54;101384.25;4683393;30;20372;-75
2022/07/29 02:15:37;;;;;;;5.53;2.15;;;;;;;17.21;63.54;101382.41;4682854;30;20045;-75
2022/07/29 02:18:09;;;;;;;5.90;2.10;;;;;;;17.26;63.91;101390.66;4679911;30;20070;-74
2022/07/29 02:20:37;;;;;;;5.65;2.17;;;;;;;17.21;63.61;101384.28;4667019;30;20038;-75
2022/07/29 02:23:04;;;;;;;6.32;2.15;;;;;;;17.15;64.04;101380.66;4682871;30;20100;-74
2022/07/29 02:25:31;;;;;;;6.97;1.98;;;;;;;17.11;63.97;101380.38;4684099;30;20034;-71
2022/07/29 02:28:00;;;;;;;4.45;2.10;;;;;;;17.15;64.07;101380.66;4683042;30;20061;-74
2022/07/29 02:30:28;;;;;;;8.20;2.50;;;;;;;17.13;64.79;101374.63;4683968;30;20034;-77
2022/07/29 02:32:55;;;;;;;7.13;2.55;;;;;;;17.10;64.29;101377.88;4682913;30;20060;-70
2022/07/29 02:35:22;;;;;;;4.70;2.30;;;;;;;17.10;64.26;101381.44;4683581;30;20096;-72
2022/07/29 02:38:49;;;;;;;6.85;2.00;;;;;;;17.12;64.46;101378.44;4683183;30;20038;-71
2022/07/29 02:40:37;;;;;;;5.50;2.38;;;;;;;17.10;64.89;101378.69;4683443;30;20495;-72
2022/07/29 02:43:05;;;;;;;2.85;1.95;;;;;;;17.08;64.41;101378.13;4682787;30;20034;-70
2022/07/29 02:45:32;;;;;;;4.63;2.40;;;;;;;17.06;64.64;101365.81;4683366;30;20380;-69
2022/07/29 02:48:00;;;;;;;4.50;2.50;;;;;;;17.04;65.35;101373.44;4682402;30;20169;-72
2022/07/29 02:50:39;;;;;;;6.88;2.25;;;;;;;17.08;64.40;101371.84;4683596;30;20118;-71
2022/07/29 02:53:12;;;;;;;5.03;2.50;;;;;;;16.99;64.50;101371.47;4682546;30;20044;-72
2022/07/29 02:55:45;;;;;;;5.35;2.33;;;;;;;17.03;64.57;101378.09;4683367;30;20033;-72
2022/07/29 02:58:10;;;;;;;4.10;2.22;;;;;;;17.04;64.85;101389.84;4682840;30;20097;-71
2022/07/29 03:00:38;;;;;;;6.73;2.20;;;;;;;17.09;64.72;101387.16;4680031;30;20050;-69
2022/07/29 03:03:07;;;;;;;8.98;2.50;;;;;;;17.05;64.74;101389.59;4699483;30;20288;-69
2022/07/29 03:05:32;;;;;;;5.93;2.60;;;;;;;17.05;64.83;101381.38;4700332;30;20049;-73
2022/07/29 03:08:02;;;;;;;4.28;2.10;;;;;;;16.98;64.73;101381.59;4691417;30;20049;-72
2022/07/29 03:10:28;;;;;;;5.75;2.30;;;;;;;16.98;65.10;101387.06;4682076;30;20092;-71
2022/07/29 03:12:56;;;;;;;3.25;2.28;;;;;;;16.93;65.66;101384.25;4682997;30;20037;-70
2022/07/29 03:15:22;;;;;;;9.15;2.30;;;;;;;16.82;65.89;101383.28;4682975;30;20057;-71
2022/07/29 03:17:48;;;;;;;9.73;2.10;;;;;;;16.78;66.08;101384.84;4682210;30;20105;-70
2022/07/29 03:20:14;;;;;;;7.18;2.25;;;;;;;16.76;66.03;101389.75;4682286;30;20038;-73
2022/07/29 03:22:46;;;;;;;6.45;2.53;;;;;;;16.75;66.18;101387.28;4682305;30;20034;-72
2022/07/29 03:25:16;;;;;;;7.75;2.17;;;;;;;16.70;66.62;101382.56;4683052;30;20487;-73
2022/07/29 03:27:42;;;;;;;8.57;2.47;;;;;;;16.64;67.25;101378.13;4681550;30;20502;-73
2022/07/29 03:30:09;;;;;;;5.75;2.30;;;;;;;16.60;67.16;101374.22;4682109;30;20050;-71
2022/07/29 03:32:35;;;;;;;10.50;2.53;;;;;;;16.61;67.00;101371.25;4682927;30;20475;-70
2022/07/29 03:35:00;;;;;;;5.97;2.40;;;;;;;16.57;67.08;101374.75;4682449;30;20045;-71
2022/07/29 03:37:26;;;;;;;6.95;2.50;;;;;;;16.61;66.64;101378.63;4682397;30;20452;-72
2022/07/29 03:39:54;;;;;;;9.25;2.60;;;;;;;16.56;67.13;101373.91;4681388;30;20181;-69
2022/07/29 03:42:23;;;;;;;6.75;2.30;;;;;;;16.57;66.65;101375.56;4682837;30;20074;-71
2022/07/29 03:44:50;;;;;;;5.10;2.25;;;;;;;16.57;66.92;101380.19;4682486;30;20042;-69
2022/07/29 03:47:18;;;;;;;2.92;2.30;;;;;;;16.49;67.30;101378.72;4682738;30;20541;-70
2022/07/29 03:49:49;;;;;;;9.07;2.55;;;;;;;16.48;67.13;101379.81;4680874;30;20033;-71
2022/07/29 03:52:14;;;;;;;4.65;2.17;;;;;;;16.44;67.36;101382.22;4682624;30;20036;-70
2022/07/29 03:54:40;;;;;;;3.55;2.30;;;;;;;16.50;67.09;101368.63;4682632;30;20030;-71
2022/07/29 03:57:06;;;;;;;4.90;2.50;;;;;;;16.41;67.54;101370.94;4682460;30;20038;-70
2022/07/29 03:59:33;;;;;;;6.05;2.17;;;;;;;16.41;67.58;101370.94;4681114;30;20030;-71
2022/07/29 04:02:01;;;;;;;2.58;2.22;;;;;;;16.31;68.03;101374.38;4686735;30;20061;-72
2022/07/29 04:04:27;;;;;;;3.35;2.20;;;;;;;16.27;67.99;101382.25;4699798;30;20070;-70
2022/07/29 04:06:52;;;;;;;6.65;2.30;;;;;;;16.27;68.00;101375.94;4699583;30;20103;-70
2022/07/29 04:09:17;;;;;;;7.00;2.45;;;;;;;16.24;68.69;101371.00;4693224;30;20034;-72
2022/07/29 04:11:43;;;;;;;7.35;2.45;;;;;;;16.23;68.93;101370.16;4682498;30;20076;-71
2022/07/29 04:14:08;;;;;;;5.88;2.42;;;;;;;16.12;69.27;101358.28;4682201;30;20459;-70
2022/07/29 04:16:34;;;;;;;4.57;2.50;;;;;;;16.13;69.34;101359.91;4682397;30;20410;-71
2022/07/29 04:18:59;;;;;;;10.63;2.95;;;;;;;16.07;69.68;101363.63;4680375;30;20053;-72
2022/07/29 04:21:25;;;;;;;3.72;2.55;;;;;;;16.09;70.07;101364.22;4681553;30;20084;-72
2022/07/29 04:23:50;;;;;;;5.60;2.53;;;;;;;16.09;70.05;101361.50;4681842;30;20045;-71
2022/07/29 04:26:17;;;;;;;5.60;2.58;;;;;;;16.12;70.05;101363.72;4682331;30;20038;-72
2022/07/29 04:28:42;;;;;;;7.13;2.30;;;;;;;16.16;69.69;101365.97;4681451;30;20344;-72
2022/07/29 04:31:08;;;;;;;5.05;2.42;;;;;;;16.10;70.74;101360.41;4680844;30;20053;-69
2022/07/29 04:33:33;;;;;;;13.95;2.70;;;;;;;16.13;70.27;101367.28;4682297;30;20066;-69
2022/07/29 04:35:59;;;;;;;7.22;2.60;;;;;;;16.08;71.25;101365.31;4685641;30;20087;-69
2022/07/29 04:38:24;;;;;;;4.70;2.65;;;;;;;16.09;71.02;101374.31;4685542;30;20041;-69
2022/07/29 04:40:49;;;;;;;4.82;2.30;;;;;;;15.98;71.09;101381.50;4684044;30;20521;-69
2022/07/29 04:43:15;;;;;;;4.80;2.53;;;;;;;15.99;72.14;101383.19;4685468;30;20045;-72
2022/07/29 04:45:41;;;;;;;6.60;2.50;;;;;;;16.03;72.08;101391.69;4685601;30;20112;-72
2022/07/29 04:48:06;;;;;;;5.63;2.50;;;;;;;15.99;72.81;101406.91;4685056;30;20387;-70
2022/07/29 04:50:32;;;;;;;5.28;2.90;;;;;;;15.97;73.16;101404.41;4684052;30;20029;-69
2022/07/29 04:52:57;;;;;;;7.35;2.90;;;;;;;15.98;73.56;101403.34;4684708;30;20132;-70
2022/07/29 04:55:23;;;;;;;5.20;2.70;;;;;;;15.93;73.68;101412.28;4685525;30;20034;-71
2022/07/29 04:57:48;;;;;;;5.95;2.58;;;;;;;15.95;74.31;101417.50;4685268;30;20037;-72
2022/07/29 05:00:13;;;;;;;5.25;2.80;;;;;;;15.87;74.16;101412.47;4683871;30;20108;-69
2022/07/29 05:02:41;;;;;;;5.15;2.83;;;;;;;15.93;74.50;101423.19;4694350;30;20045;-70
2022/07/29 05:05:07;;;;;;;7.13;3.00;;;;;;;15.88;74.93;101434.03;4702139;30;20515;-69
2022/07/29 05:07:32;;;;;;;5.93;3.05;;;;;;;15.82;75.60;101424.13;4686938;30;20041;-69
2022/07/29 05:09:58;;;;;;;6.38;2.90;;;;;;;15.83;75.55;101433.94;4691939;30;20057;-69
2022/07/29 05:12:24;;;;;;;8.18;3.10;;;;;;;15.84;75.86;101441.06;4685273;30;20033;-73
2022/07/29 05:14:49;;;;;;;6.25;2.80;;;;;;;15.84;76.29;101432.06;4685008;30;20040;-70
2022/07/29 05:17:14;;;;;;;5.45;2.80;;;;;;;15.89;76.13;101424.75;4684863;30;20030;-73
2022/07/29 05:19:40;;;;;;;6.30;3.20;;;;;;;15.88;76.11;101438.66;4682944;30;20037;-72
2022/07/29 05:22:05;;;;;;;6.78;3.20;;;;;;;15.87;76.42;101432.38;4684866;30;20041;-72
2022/07/29 05:24:30;;;;;;;5.03;3.30;;;;;;;15.86;76.52;101436.16;4683809;30;20030;-72
2022/07/29 05:26:56;;;;;;;7.35;3.55;;;;;;;15.82;77.13;101432.31;4684737;30;20026;-71
2022/07/29 05:29:21;;;;;;;7.50;3.22;;;;;;;15.92;76.60;101434.38;4683133;30;20037;-71
2022/07/29 05:31:46;;;;;;;10.13;3.22;;;;;;;15.92;76.74;101437.09;4684966;30;20105;-71
2022/07/29 05:34:11;;;;;;;4.82;3.25;;;;;;;15.99;76.63;101434.19;4684646;30;20026;-71
2022/07/29 05:36:37;;;;;;;6.63;3.00;;;;;;;16.05;76.44;101436.78;4685023;30;20037;-72
2022/07/29 05:39:02;;;;;;;6.13;3.33;;;;;;;16.01;76.82;101427.41;4667788;30;20387;-69
2022/07/29 05:41:28;;;;;;;6.47;3.30;;;;;;;15.98;76.45;101427.09;4684519;30;20057;-70
2022/07/29 05:43:54;;;;;;;9.38;3.30;;;;;;;15.95;77.11;101436.59;4684260;30;20602;-72
2022/07/29 05:46:19;;;;;;;8.27;3.33;;;;;;;15.90;77.80;101442.81;4683952;30;20046;-72
2022/07/29 05:48:44;;;;;;;5.75;3.13;;;;;;;15.87;77.83;101432.38;4684628;30;20029;-72
2022/07/29 05:51:09;;;;;;;6.38;3.35;;;;;;;15.88;78.05;101433.19;4682968;30;20034;-72
2022/07/29 05:53:35;;;;;;;7.93;3.60;;;;;;;15.93;77.95;101436.84;4684864;30;20070;-72
2022/07/29 05:56:04;;;;;;;7.13;3.50;;;;;;;15.88;77.73;101433.19;4684105;30;20117;-72
2022/07/29 05:58:29;;;;;;;7.32;4.30;;;;;;;15.87;78.94;101431.56;4684248;30;20475;-72
2022/07/29 06:00:58;;;;;;;12.20;4.18;;;;;;;15.89;78.65;101429.41;4681847;30;20113;-69
2022/07/29 06:03:24;;;;;;;8.00;4.25;;;;;;;15.92;78.13;101423.44;4698710;30;20034;-72
2022/07/29 06:05:50;;;;;;;8.07;3.95;;;;;;;15.92;78.42;101434.38;4683964;30;20062;-72
2022/07/29 06:08:15;;;;;;;8.45;3.75;;;;;;;15.92;78.04;101432.44;4684147;30;20080;-71
2022/07/29 06:10:40;;;;;;;6.60;4.00;;;;;;;15.93;78.12;101427.84;4683595;30;20494;-69
2022/07/29 06:13:06;;;;;;;8.45;3.90;;;;;;;15.94;78.08;101422.13;4684057;30;20113;-70
2022/07/29 06:15:31;;;;;;;8.00;3.90;;;;;;;15.98;78.48;101427.91;4685618;30;20094;-70
2022/07/29 06:17:56;;;;;;;5.95;3.70;;;;;;;16.02;78.60;101434.53;4686524;30;20042;-76
2022/07/29 06:20:22;;;;;;;8.15;4.15;;;;;;;16.10;78.54;101442.31;4681991;30;20066;-71
2022/07/29 06:22:47;;;;;;;8.35;3.90;;;;;;;16.16;78.17;101439.69;4667053;30;20034;-68
2022/07/29 06:25:12;;;;;;;7.13;4.05;;;;;;;16.18;77.60;101434.78;4680053;30;20041;-71
2022/07/29 06:27:38;;;;;;;13.07;3.92;;;;;;;16.16;77.91;101439.69;4683988;30;20435;-74
2022/07/29 06:30:06;;;;;;;10.43;4.00;;;;;;;16.22;78.39;101433.22;4682938;30;20128;-72
2022/07/29 06:32:31;;;;;;;16.45;4.43;;;;;;;16.29;77.48;101436.63;4683762;30;20495;-71
2022/07/29 06:34:57;;;;;;;9.00;4.35;;;;;;;16.28;77.87;101434.97;4682809;30;20049;-71
2022/07/29 06:37:22;;;;;;;13.20;3.92;;;;;;;16.30;77.43;101441.00;4683848;30;20045;-72
2022/07/29 06:39:47;;;;;;;5.85;4.18;;;;;;;16.38;77.58;101434.28;4682857;30;20428;-71
2022/07/29 06:42:12;;;;;;;9.07;4.20;;;;;;;16.36;76.75;101445.44;4683350;30;20026;-71
2022/07/29 06:44:38;;;;;;;8.00;4.10;;;;;;;16.35;77.00;101448.44;4682802;30;20045;-72
2022/07/29 06:47:03;;;;;;;6.93;4.13;;;;;;;16.29;77.28;101439.34;4683526;30;20038;-70
2022/07/29 06:49:29;;;;;;;6.90;3.85;;;;;;;16.25;77.80;101440.91;4682848;30;20073;-71
2022/07/29 06:51:55;;;;;;;6.78;4.03;;;;;;;16.26;78.31;101445.28;4683100;30;20026;-71
2022/07/29 06:54:21;;;;;;;10.65;4.00;;;;;;;16.26;77.50;101448.88;4682674;30;20116;-70
2022/07/29 06:56:46;;;;;;;8.57;4.15;;;;;;;16.26;77.61;101453.47;4683111;30;20386;-75
2022/07/29 06:59:12;;;;;;;9.45;4.63;;;;;;;16.22;77.51;101455.88;4682748;30;20038;-77
2022/07/29 07:01:39;;;;;;;12.25;3.92;;;;;;;16.20;78.52;101458.06;4687583;30;20052;-74
2022/07/29 07:04:05;;;;;;;8.13;3.92;;;;;;;16.28;78.54;101460.34;4694713;30;20096;-71
2022/07/29 07:06:31;;;;;;;10.32;4.07;;;;;;;16.28;77.90;101454.06;4667722;30;20054;-73
2022/07/29 07:08:56;;;;;;;10.98;4.22;;;;;;;16.32;78.63;101455.25;4683075;30;20026;-77
2022/07/29 07:11:21;;;;;;;6.32;4.10;;;;;;;16.32;78.67;101460.72;4681623;30;20046;-76
2022/07/29 07:13:46;;;;;;;9.55;4.25;;;;;;;16.36;78.64;101466.47;4683371;30;20098;-74
2022/07/29 07:16:12;;;;;;;5.97;3.95;;;;;;;16.36;79.07;101458.28;4683056;30;20030;-75
2022/07/29 07:18:37;;;;;;;8.02;4.13;;;;;;;16.42;78.94;101462.75;4683156;30;20033;-72
2022/07/29 07:21:04;;;;;;;6.32;3.70;;;;;;;16.48;78.66;101464.50;4679614;30;20056;-71
2022/07/29 07:23:30;;;;;;;7.10;4.10;;;;;;;16.54;78.21;101468.94;4682399;30;20456;-71
2022/07/29 07:25:55;;;;;;;8.52;4.10;;;;;;;16.66;78.25;101471.59;4682324;30;20036;-73
2022/07/29 07:28:20;;;;;;;10.68;4.28;;;;;;;16.69;77.59;101460.16;4682995;30;20050;-69
2022/07/29 07:30:46;;;;;;;7.45;4.00;;;;;;;16.77;77.22;101461.63;4682041;30;20046;-72
2022/07/29 07:33:11;;;;;;;5.68;3.92;;;;;;;16.78;77.47;101463.28;4683084;30;20049;-74
2022/07/29 07:35:36;;;;;;;7.38;4.28;;;;;;;16.86;77.66;101459.28;4676770;30;20049;-70
2022/07/29 07:38:01;;;;;;;9.15;4.60;;;;;;;16.89;77.78;101465.09;4665638;30;20035;-71
2022/07/29 07:40:27;;;;;;;6.68;4.10;;;;;;;16.99;76.81;101462.50;4676256;30;20059;-71
2022/07/29 07:42:52;;;;;;;6.78;4.20;;;;;;;17.09;76.41;101469.19;4673797;30;20457;-71
2022/07/29 07:45:17;;;;;;;6.20;4.20;;;;;;;17.20;76.15;101459.25;4682542;30;20034;-74
2022/07/29 07:47:43;;;;;;;6.32;4.20;;;;;;;17.26;75.04;101459.03;4682067;30;20061;-74
2022/07/29 07:50:11;;;;;;;6.13;4.60;;;;;;;17.31;74.45;101461.00;4681941;30;20395;-72
2022/07/29 07:52:48;;;;;;;9.55;4.45;;;;;;;17.43;75.41;101467.16;4680819;30;20045;-70
2022/07/29 07:55:13;;;;;;;7.28;4.50;;;;;;;17.53;74.98;101463.72;4682489;30;20037;-73
2022/07/29 07:57:39;;;;;;;7.22;3.88;;;;;;;17.69;75.25;101464.69;4681426;30;20034;-72
2022/07/29 08:00:05;;;;;;;7.18;3.90;;;;;;;17.80;74.14;101469.22;4665666;30;20073;-74
2022/07/29 08:02:31;;;;;;;10.57;4.30;;;;;;;17.84;73.85;101469.50;4684489;30;20511;-71
2022/07/29 08:04:56;;;;;;;11.25;4.40;;;;;;;17.87;73.29;101461.63;4682564;30;20164;-69
2022/07/29 08:07:21;;;;;;;10.80;4.78;;;;;;;17.96;73.56;101469.38;4681884;30;20121;-71
2022/07/29 08:09:47;;;;;;;6.82;4.30;;;;;;;18.08;72.76;101466.47;4681969;30;20384;-73
2022/07/29 08:12:12;;;;;;;8.68;3.90;;;;;;;18.10;72.22;101459.66;4681404;30;20057;-72
2022/07/29 08:14:38;;;;;;;7.28;3.80;;;;;;;18.12;72.36;101471.16;4681512;30;20495;-71
2022/07/29 08:17:03;;;;;;;5.68;3.78;;;;;;;18.23;73.09;101469.34;4681538;30;20365;-68
2022/07/29 08:19:28;;;;;;;14.77;4.40;;;;;;;18.30;72.13;101469.97;4682470;30;20100;-70
2022/07/29 08:21:54;;;;;;;6.45;4.10;;;;;;;18.34;71.71;101470.25;4681568;30;20042;-74
2022/07/29 08:27:04;;;;;;;9.90;4.47;;;;;;;18.49;72.44;101473.09;4681120;30;20073;-73
2022/07/29 08:29:29;;;;;;;8.68;4.38;;;;;;;18.51;71.26;101479.16;4681955;30;20460;-69
2022/07/29 08:31:55;;;;;;;8.45;4.35;;;;;;;18.55;70.47;101480.25;4679805;30;20041;-75
2022/07/29 08:34:21;;;;;;;5.40;4.30;;;;;;;18.51;70.51;101478.31;4680376;30;20045;-72
2022/07/29 08:36:46;;;;;;;8.80;4.60;;;;;;;18.58;71.97;101481.66;4679361;30;20049;-74
2022/07/29 08:39:11;;;;;;;7.07;4.25;;;;;;;18.65;71.20;101489.66;4681134;30;20194;-75
2022/07/29 08:41:36;;;;;;;10.02;4.63;;;;;;;18.64;70.66;101483.34;4682172;30;20040;-75
2022/07/29 08:44:03;;;;;;;7.18;4.43;;;;;;;18.72;70.84;101480.13;4681974;30;20030;-77
2022/07/29 08:46:28;;;;;;;7.63;4.22;;;;;;;18.77;70.32;101485.63;4681381;30;20042;-74
2022/07/29 08:48:55;;;;;;;5.72;3.88;;;;;;;18.89;70.05;101484.63;4682099;30;20044;-74
2022/07/29 08:51:21;;;;;;;8.70;4.53;;;;;;;18.87;68.93;101492.28;4681109;30;20109;-75
2022/07/29 08:53:48;;;;;;;8.90;4.88;;;;;;;18.91;69.17;101483.25;4682078;30;20070;-74
2022/07/29 08:56:17;;;;;;;7.10;4.03;;;;;;;18.98;69.20;101485.78;4679043;30;20041;-73
2022/07/29 08:58:42;;;;;;;8.18;4.45;;;;;;;18.95;69.31;101483.56;4681337;30;20037;-73
2022/07/29 09:01:08;;;;;;;10.07;4.25;;;;;;;19.04;68.72;101475.66;4678724;30;20048;-72
2022/07/29 09:03:36;;;;;;;8.82;3.92;;;;;;;19.15;67.88;101485.59;4680639;30;20041;-72
2022/07/29 09:06:03;;;;;;;7.18;3.67;;;;;;;19.19;67.03;101485.88;4680892;30;20081;-73
2022/07/29 09:08:31;;;;;;;7.78;3.72;;;;;;;19.23;66.69;101479.56;4666297;30;20045;-73
2022/07/29 09:10:57;;;;;;;10.30;3.80;;;;;;;19.28;66.87;101476.06;4664906;30;20034;-71
2022/07/29 09:13:22;;;;;;;8.02;3.63;;;;;;;19.38;66.52;101484.31;4675944;30;20026;-72
2022/07/29 09:15:48;;;;;;;7.95;3.35;;;;;;;19.48;66.42;101486.28;4681449;30;20046;-71
2022/07/29 09:18:39;;;;;;;7.72;3.85;;;;;;;19.55;66.34;101480.50;4676907;30;20469;-74
2022/07/29 09:24:05;;;;;;;5.97;4.20;;;;;;;19.68;66.38;101484.69;4682700;30;20048;-74
2022/07/29 09:26:31;;;;;;;6.95;3.65;;;;;;;19.73;64.03;101487.44;4685116;30;20034;-68
2022/07/29 09:28:58;;;;;;;6.05;3.03;;;;;;;19.81;62.53;101496.00;4684758;30;20030;-69
2022/07/29 09:31:36;;;;;;;8.23;3.67;;;;;;;19.87;63.89;101496.00;4683707;30;20042;-72
2022/07/29 09:34:03;;;;;;;8.10;3.38;;;;;;;19.89;63.60;101491.88;4683027;30;20045;-70
2022/07/29 09:36:29;;;;;;;6.40;3.38;;;;;;;19.96;63.30;101497.13;4684876;30;20073;-73
2022/07/29 09:39:02;;;;;;;7.47;3.40;;;;;;;20.10;63.82;101492.72;4684883;30;20080;-74
2022/07/29 09:41:27;;;;;;;7.78;3.70;;;;;;;20.12;63.11;101489.72;4683866;30;20033;-69
2022/07/29 09:43:57;;;;;;;11.18;3.42;;;;;;;20.16;62.19;101494.38;4683977;30;20598;-74
2022/07/29 09:46:23;;;;;;;5.13;2.95;;;;;;;20.27;62.22;101492.47;4684431;30;20054;-72
2022/07/29 09:49:12;;;;;;;9.77;2.80;;;;;;;20.36;62.64;101490.81;4684634;30;20515;-73
2022/07/29 09:51:38;;;;;;;5.30;2.70;;;;;;;20.48;60.56;101495.22;4682869;30;20045;-73
2022/07/29 09:54:26;;;;;;;5.75;2.60;;;;;;;20.58;60.71;101497.94;4662992;30;20495;-72
2022/07/29 09:56:52;;;;;;;6.20;2.80;;;;;;;20.63;59.96;101494.38;4684182;30;20053;-72
2022/07/29 09:59:18;;;;;;;5.57;3.17;;;;;;;20.69;58.10;101496.84;4683993;30;20527;-73
2022/07/29 10:01:43;;;;;;;4.57;2.53;;;;;;;20.66;58.39;101482.84;4678816;30;20065;-72
2022/07/29 10:04:09;;;;;;;9.75;3.08;;;;;;;20.69;58.69;101482.28;4683157;30;20112;-75
2022/07/29 10:06:34;;;;;;;5.00;2.42;;;;;;;20.80;58.45;101483.91;4684632;30;20499;-73
2022/07/29 10:09:10;;;;;;;7.45;2.80;;;;;;;20.89;58.09;101489.66;4684041;30;20036;-74
2022/07/29 10:11:35;;;;;;;6.75;2.80;;;;;;;20.93;56.52;101477.00;4683358;30;20120;-75
2022/07/29 10:14:03;;;;;;;7.15;3.03;;;;;;;21.03;57.36;101478.88;4665033;30;20540;-73
2022/07/29 10:16:32;;;;;;;5.80;2.60;;;;;;;21.08;57.02;101478.88;4651686;30;20460;-76
2022/07/29 10:19:01;;;;;;;7.90;2.70;;;;;;;21.17;56.94;101479.94;4667293;30;20037;-75
2022/07/29 10:21:27;;;;;;;7.07;2.90;;;;;;;21.26;56.27;101488.44;4666984;30;20113;-76
2022/07/29 10:23:53;;;;;;;5.72;2.75;;;;;;;21.28;55.44;101482.66;4678813;30;20093;-76
2022/07/29 10:26:19;;;;;;;7.72;2.80;;;;;;;21.29;54.63;101474.13;4683654;30;20088;-72
2022/07/29 10:28:44;;;;;;;6.47;2.80;;;;;;;21.37;55.76;101476.28;4684269;30;20041;-77
2022/07/29 10:31:22;;;;;;;14.35;2.92;;;;;;;21.49;56.99;101477.88;4684026;30;20037;-73
2022/07/29 10:34:11;;;;;;;9.35;2.72;;;;;;;21.59;56.18;101480.63;4682846;30;20022;-74
2022/07/29 10:37:34;;;;;;;7.72;2.78;;;;;;;21.72;55.27;101487.41;4667880;30;20077;-75
2022/07/29 10:43:23;;;;;;;5.53;2.63;;;;;;;21.93;53.77;101468.81;4630563;31;20054;-76
2022/07/29 10:45:54;;;;;;;6.47;2.50;;;;;;;22.00;52.33;101477.59;4630504;30;20055;-75
2022/07/29 10:48:20;;;;;;;4.13;2.30;;;;;;;22.00;53.84;101463.81;4657398;30;20054;-76
2022/07/29 10:50:55;;;;;;;5.15;2.42;;;;;;;22.10;53.93;101471.16;4683724;30;20038;-74
2022/07/29 10:53:21;;;;;;;4.15;2.42;;;;;;;22.14;52.13;101475.00;4683696;30;20089;-76
2022/07/29 10:55:49;;;;;;;8.00;2.50;;;;;;;22.19;53.04;101463.09;4683211;30;20038;-78
2022/07/29 10:58:20;;;;;;;6.13;2.50;;;;;;;22.19;52.57;101463.91;4668113;30;20034;-76
2022/07/29 11:00:47;;;;;;;5.15;2.97;;;;;;;22.25;52.55;101471.06;4680355;30;20025;-73
2022/07/29 11:03:44;;;;;;;6.47;2.70;;;;;;;22.31;52.95;101466.31;4693223;30;20065;-73
2022/07/29 11:06:12;;;;;;;4.78;2.17;;;;;;;22.41;52.37;101465.44;4675896;30;20104;-77
2022/07/29 11:08:38;;;;;;;5.57;2.65;;;;;;;22.56;52.12;101472.72;4667971;30;20064;-75
2022/07/29 11:11:32;;;;;;;7.20;2.80;;;;;;;22.73;52.74;101470.34;4683437;30;20033;-74
2022/07/29 11:13:58;;;;;;;8.30;2.60;;;;;;;22.72;51.13;101467.88;4670875;30;20129;-76
2022/07/29 11:16:23;;;;;;;6.43;2.60;;;;;;;22.81;51.00;101469.72;4682451;30;20141;-74
2022/07/29 11:19:14;;;;;;;7.07;2.85;;;;;;;22.95;52.42;101467.06;4683265;30;20033;-74
2022/07/29 11:21:47;;;;;;;6.32;2.15;;;;;;;22.99;50.86;101470.88;4667757;30;20030;-74
2022/07/29 11:24:18;;;;;;;8.02;2.47;;;;;;;22.96;50.93;101465.13;4680721;30;20041;-73
2022/07/29 11:26:44;;;;;;;5.55;2.85;;;;;;;22.88;50.53;101463.00;4683419;30;20426;-75
2022/07/29 11:29:23;;;;;;;7.05;2.15;;;;;;;22.99;51.55;101468.13;4683061;30;20117;-74
2022/07/29 11:31:54;;;;;;;5.60;2.50;;;;;;;22.97;50.52;101462.06;4682254;30;20037;-73
2022/07/29 11:34:33;;;;;;;7.45;2.58;;;;;;;22.93;50.91;101454.66;4667285;30;20058;-74
2022/07/29 11:39:37;;;;;;;5.90;2.20;;;;;;;23.07;48.72;101460.28;4682741;30;20053;-75
2022/07/29 11:42:20;;;;;;;7.07;2.25;;;;;;;23.23;49.62;101463.72;4676035;30;20034;-74
2022/07/29 11:45:00;;;;;;;5.22;1.70;;;;;;;23.35;48.75;101467.69;4679879;30;20038;-75
2022/07/29 11:47:29;;;;;;;4.97;1.35;;;;;;;23.36;47.21;101457.47;4682641;30;20034;-74
2022/07/29 11:49:59;;;;;;;7.10;2.25;;;;;;;23.45;47.60;101463.97;4682496;30;20112;-74
2022/07/29 11:52:33;;;;;;;7.27;1.93;;;;;;;23.56;48.29;101463.84;4681390;30;20034;-77
2022/07/29 11:55:02;;;;;;;8.63;2.60;;;;;;;23.61;48.71;101463.75;4675325;30;20323;-78